Time;durP1;ratioP1;P1;durP2;ratioP2;P2;SDS_P1;SDS_P2;PMS_P1;PMS_P2;Temp;Humidity;BMP_temperature;BMP_pressure;BME280_temperature;BME280_humidity;BME280_pressure;Samples;Min_cycle;Max_cycle;Signal;HPM_P1;HPM_P2
2023/10/28 00:01:02;;;;;;;2.17;1.85;;;;;;;;;;5128795;27;41599;-60
2023/10/28 00:03:30;;;;;;;2.65;1.73;;;;;;;;;;5126802;27;41732;-60
2023/10/28 00:05:58;;;;;;;2.85;1.90;;;;;;;;;;5122247;27;41808;-60
2023/10/28 00:08:26;;;;;;;2.20;1.98;;;;;;;;;;5130049;27;41270;-60
2023/10/28 00:10:54;;;;;;;1.98;1.65;;;;;;;;;;5129896;27;42046;-60
2023/10/28 00:13:22;;;;;;;1.90;1.60;;;;;;;;;;5125684;27;42532;-60
2023/10/28 00:15:50;;;;;;;1.85;1.75;;;;;;;;;;5130492;27;41479;-60
2023/10/28 00:18:19;;;;;;;2.28;1.70;;;;;;;;;;5129027;27;42098;-60
2023/10/28 00:20:47;;;;;;;2.15;1.80;;;;;;;;;;5125551;27;40689;-60
2023/10/28 00:23:16;;;;;;;2.55;1.80;;;;;;;;;;5129914;27;42220;-60
2023/10/28 00:25:44;;;;;;;2.83;1.88;;;;;;;;;;5128959;27;43013;-60
2023/10/28 00:28:13;;;;;;;2.08;1.60;;;;;;;;;;5127219;27;40537;-60
2023/10/28 00:30:41;;;;;;;2.58;2.00;;;;;;;;;;5126086;27;41663;-60
2023/10/28 00:33:09;;;;;;;3.10;2.03;;;;;;;;;;5124606;27;42763;-60
2023/10/28 00:35:42;;;;;;;1.60;1.35;;;;;;;;;;5110175;27;39392;-60
2023/10/28 00:38:10;;;;;;;3.25;1.98;;;;;;;;;;5099418;27;41205;-60
2023/10/28 00:40:38;;;;;;;2.42;1.80;;;;;;;;;;5122922;27;41337;-60
2023/10/28 00:43:07;;;;;;;3.20;1.60;;;;;;;;;;5129307;27;41556;-60
2023/10/28 00:45:35;;;;;;;2.15;1.50;;;;;;;;;;5111557;27;41331;-60
2023/10/28 00:48:04;;;;;;;2.25;1.70;;;;;;;;;;5124651;27;39905;-60
2023/10/28 00:50:32;;;;;;;2.58;1.70;;;;;;;;;;5120921;27;41736;-60
2023/10/28 00:53:02;;;;;;;2.55;1.70;;;;;;;;;;5129555;27;41592;-60
2023/10/28 00:55:30;;;;;;;2.70;1.73;;;;;;;;;;5124921;27;40120;-60
2023/10/28 00:57:58;;;;;;;2.78;1.75;;;;;;;;;;5121877;27;42256;-60
2023/10/28 01:00:26;;;;;;;1.83;1.45;;;;;;;;;;5101975;27;40304;-60
2023/10/28 01:02:54;;;;;;;2.40;1.60;;;;;;;;;;5128701;27;42511;-60
2023/10/28 01:05:22;;;;;;;2.75;2.05;;;;;;;;;;5129960;27;42194;-60
2023/10/28 01:07:50;;;;;;;2.67;1.80;;;;;;;;;;5105465;27;40102;-60
2023/10/28 01:10:27;;;;;;;1.70;1.50;;;;;;;;;;5124335;27;41127;-60
2023/10/28 01:12:55;;;;;;;1.65;1.50;;;;;;;;;;5114405;27;42774;-60
2023/10/28 01:15:23;;;;;;;1.98;1.52;;;;;;;;;;5095314;27;40160;-59
2023/10/28 01:17:51;;;;;;;3.58;1.65;;;;;;;;;;5119952;27;42352;-60
2023/10/28 01:20:20;;;;;;;1.75;1.48;;;;;;;;;;5091983;28;42299;-60
2023/10/28 01:22:49;;;;;;;1.70;1.60;;;;;;;;;;5119526;27;40535;-60
2023/10/28 01:25:19;;;;;;;2.53;1.90;;;;;;;;;;5128359;27;43067;-60
2023/10/28 01:27:47;;;;;;;2.65;1.75;;;;;;;;;;5110298;27;38636;-60
2023/10/28 01:30:14;;;;;;;2.58;1.65;;;;;;;;;;5109158;27;40180;-60
2023/10/28 01:32:43;;;;;;;2.97;1.75;;;;;;;;;;5122209;27;41414;-60
2023/10/28 01:35:12;;;;;;;2.83;1.60;;;;;;;;;;5129364;27;41427;-60
2023/10/28 01:37:41;;;;;;;1.63;1.20;;;;;;;;;;5127911;27;42202;-60
2023/10/28 01:40:13;;;;;;;2.42;1.70;;;;;;;;;;5129777;27;43465;-60
2023/10/28 01:42:44;;;;;;;2.20;1.48;;;;;;;;;;5114670;27;40003;-60
2023/10/28 01:45:13;;;;;;;1.58;1.20;;;;;;;;;;5128308;27;41690;-60
2023/10/28 01:47:42;;;;;;;2.67;1.45;;;;;;;;;;5127979;27;40154;-60
2023/10/28 01:50:11;;;;;;;2.08;1.40;;;;;;;;;;5129597;27;41508;-60
2023/10/28 01:52:39;;;;;;;2.55;1.33;;;;;;;;;;5108809;27;42787;-60
2023/10/28 01:55:09;;;;;;;2.15;1.30;;;;;;;;;;5129086;27;40683;-60
2023/10/28 01:57:39;;;;;;;2.47;1.60;;;;;;;;;;5121005;27;42872;-60
2023/10/28 02:00:12;;;;;;;2.20;1.13;;;;;;;;;;5108533;27;40548;-60
2023/10/28 02:02:44;;;;;;;3.08;1.60;;;;;;;;;;5098237;27;40292;-60
2023/10/28 02:05:12;;;;;;;1.48;1.10;;;;;;;;;;5128982;27;41392;-60
2023/10/28 02:07:40;;;;;;;2.63;1.40;;;;;;;;;;5109416;27;40404;-60
2023/10/28 02:10:09;;;;;;;2.53;1.15;;;;;;;;;;5109598;27;41569;-61
2023/10/28 02:12:38;;;;;;;1.70;1.20;;;;;;;;;;5098870;27;40647;-60
2023/10/28 02:15:07;;;;;;;1.88;1.27;;;;;;;;;;5110570;27;39077;-61
2023/10/28 02:17:35;;;;;;;2.30;1.30;;;;;;;;;;5128822;27;42397;-60
2023/10/28 02:20:04;;;;;;;2.10;1.40;;;;;;;;;;5108751;27;41822;-60
2023/10/28 02:22:33;;;;;;;1.98;1.48;;;;;;;;;;5108871;27;38990;-60
2023/10/28 02:25:03;;;;;;;2.58;1.58;;;;;;;;;;5128827;27;41379;-60
2023/10/28 02:27:32;;;;;;;2.30;1.25;;;;;;;;;;5127431;27;42033;-60
2023/10/28 02:30:01;;;;;;;2.58;1.27;;;;;;;;;;5128454;27;41549;-60
2023/10/28 02:32:29;;;;;;;1.80;1.45;;;;;;;;;;5128218;27;41794;-60
2023/10/28 02:34:59;;;;;;;2.08;1.17;;;;;;;;;;5127857;27;40293;-60
2023/10/28 02:37:27;;;;;;;1.52;1.20;;;;;;;;;;5123227;27;42625;-60
2023/10/28 02:39:55;;;;;;;1.60;1.30;;;;;;;;;;5126040;27;42102;-60
2023/10/28 02:42:23;;;;;;;1.70;1.20;;;;;;;;;;5108237;27;38912;-60
2023/10/28 02:44:52;;;;;;;1.88;1.40;;;;;;;;;;5128511;27;42600;-60
2023/10/28 02:47:22;;;;;;;2.70;1.58;;;;;;;;;;5127505;27;42576;-60
2023/10/28 02:49:50;;;;;;;1.60;1.02;;;;;;;;;;5117883;27;42128;-60
2023/10/28 02:52:19;;;;;;;1.45;1.15;;;;;;;;;;5115385;27;41803;-60
2023/10/28 02:54:47;;;;;;;2.63;1.52;;;;;;;;;;5113704;27;41013;-60
2023/10/28 02:57:14;;;;;;;2.13;1.33;;;;;;;;;;5125428;27;42166;-60
2023/10/28 02:59:42;;;;;;;2.38;1.30;;;;;;;;;;5126048;27;42016;-60
2023/10/28 03:02:10;;;;;;;1.50;1.10;;;;;;;;;;5127259;27;40488;-60
2023/10/28 03:04:40;;;;;;;2.28;1.30;;;;;;;;;;5127602;27;41556;-60
2023/10/28 03:07:08;;;;;;;1.80;1.15;;;;;;;;;;5125876;27;43125;-60
2023/10/28 03:09:36;;;;;;;1.67;1.08;;;;;;;;;;5112470;27;40383;-60
2023/10/28 03:12:04;;;;;;;1.23;1.13;;;;;;;;;;5096196;27;40021;-60
2023/10/28 03:14:32;;;;;;;2.08;1.38;;;;;;;;;;5100709;27;39716;-60
2023/10/28 03:17:00;;;;;;;2.15;1.20;;;;;;;;;;5126251;27;41719;-60
2023/10/28 03:19:28;;;;;;;1.90;1.38;;;;;;;;;;5126984;27;41614;-60
2023/10/28 03:21:58;;;;;;;2.42;1.35;;;;;;;;;;5127286;27;40353;-60
2023/10/28 03:24:26;;;;;;;2.00;1.33;;;;;;;;;;5126652;27;41963;-60
2023/10/28 03:26:54;;;;;;;2.67;1.15;;;;;;;;;;5127014;27;41727;-60
2023/10/28 03:29:22;;;;;;;1.58;1.10;;;;;;;;;;5127125;27;40634;-60
2023/10/28 03:31:50;;;;;;;1.48;1.35;;;;;;;;;;5126455;27;43387;-60
2023/10/28 03:34:18;;;;;;;1.85;1.30;;;;;;;;;;5109612;27;31350;-60
2023/10/28 03:36:46;;;;;;;2.53;1.33;;;;;;;;;;5125176;27;41601;-60
2023/10/28 03:39:17;;;;;;;2.70;1.23;;;;;;;;;;5127663;27;41601;-60
2023/10/28 03:41:45;;;;;;;1.30;1.00;;;;;;;;;;5121989;27;41344;-60
2023/10/28 03:44:13;;;;;;;2.70;1.20;;;;;;;;;;5122046;27;41439;-59
2023/10/28 03:46:41;;;;;;;1.90;1.10;;;;;;;;;;5126438;27;42024;-60
2023/10/28 03:49:09;;;;;;;1.23;1.02;;;;;;;;;;5126913;27;40426;-60
2023/10/28 03:51:38;;;;;;;2.92;1.20;;;;;;;;;;5125818;27;42615;-60
2023/10/28 03:54:07;;;;;;;2.47;1.10;;;;;;;;;;5126666;27;42119;-60
2023/10/28 03:56:36;;;;;;;2.13;1.30;;;;;;;;;;5125926;27;41375;-60
2023/10/28 03:59:04;;;;;;;1.50;1.00;;;;;;;;;;5112269;27;42804;-60
2023/10/28 04:01:32;;;;;;;2.30;1.20;;;;;;;;;;5126727;27;40300;-60
2023/10/28 04:04:00;;;;;;;1.35;1.00;;;;;;;;;;5126233;27;42701;-60
2023/10/28 04:06:28;;;;;;;1.77;1.10;;;;;;;;;;5125727;27;42108;-60
2023/10/28 04:08:56;;;;;;;1.55;1.00;;;;;;;;;;5126063;27;39864;-60
2023/10/28 04:11:24;;;;;;;2.13;1.17;;;;;;;;;;5126253;27;42162;-60
2023/10/28 04:13:53;;;;;;;1.52;0.98;;;;;;;;;;5124283;27;43152;-59
2023/10/28 04:16:22;;;;;;;2.15;1.15;;;;;;;;;;5127624;27;40175;-59
2023/10/28 04:18:50;;;;;;;1.20;0.85;;;;;;;;;;5122540;27;41983;-59
2023/10/28 04:21:18;;;;;;;2.45;0.88;;;;;;;;;;5121305;27;40960;-59
2023/10/28 04:23:46;;;;;;;1.42;0.80;;;;;;;;;;5125017;27;42272;-59
2023/10/28 04:26:13;;;;;;;1.00;0.75;;;;;;;;;;5124594;27;42719;-59
2023/10/28 04:28:41;;;;;;;1.13;0.85;;;;;;;;;;5126378;27;41915;-59
2023/10/28 04:31:11;;;;;;;1.20;0.80;;;;;;;;;;5126333;27;42612;-59
2023/10/28 04:33:39;;;;;;;1.60;0.90;;;;;;;;;;5126100;27;42261;-59
2023/10/28 04:36:09;;;;;;;1.50;0.93;;;;;;;;;;5130166;27;40193;-59
2023/10/28 04:38:40;;;;;;;2.17;0.85;;;;;;;;;;5122839;27;42222;-59
2023/10/28 04:41:09;;;;;;;1.23;0.80;;;;;;;;;;5116093;27;40900;-59
2023/10/28 04:43:37;;;;;;;1.67;1.00;;;;;;;;;;5129588;27;42130;-59
2023/10/28 04:46:05;;;;;;;1.60;0.85;;;;;;;;;;5130079;27;41962;-59
2023/10/28 04:48:38;;;;;;;1.40;0.85;;;;;;;;;;5128929;27;40352;-59
2023/10/28 04:51:06;;;;;;;0.70;0.68;;;;;;;;;;5129331;27;41362;-59
2023/10/28 04:53:34;;;;;;;1.65;1.02;;;;;;;;;;5129455;27;42683;-59
2023/10/28 04:56:02;;;;;;;1.73;0.70;;;;;;;;;;5126705;27;42072;-59
2023/10/28 04:58:30;;;;;;;0.90;0.70;;;;;;;;;;5129768;27;41273;-59
2023/10/28 05:00:58;;;;;;;1.08;0.77;;;;;;;;;;5130079;27;43077;-59
2023/10/28 05:03:26;;;;;;;1.05;0.75;;;;;;;;;;5128505;27;42605;-59
2023/10/28 05:05:56;;;;;;;1.20;0.80;;;;;;;;;;5128984;27;43157;-59
2023/10/28 05:08:27;;;;;;;1.35;0.70;;;;;;;;;;5128602;27;39745;-59
2023/10/28 05:10:55;;;;;;;0.77;0.60;;;;;;;;;;5128634;27;41054;-59
2023/10/28 05:13:23;;;;;;;1.52;0.75;;;;;;;;;;5114211;27;43124;-59
2023/10/28 05:15:51;;;;;;;0.90;0.60;;;;;;;;;;5128251;27;40224;-59
2023/10/28 05:18:19;;;;;;;2.38;0.73;;;;;;;;;;5128716;27;42170;-59
2023/10/28 05:20:47;;;;;;;1.55;0.80;;;;;;;;;;5128426;27;43428;-59
2023/10/28 05:23:16;;;;;;;1.00;0.52;;;;;;;;;;5129026;27;39713;-59
2023/10/28 05:25:44;;;;;;;1.10;0.80;;;;;;;;;;5114738;27;42070;-59
2023/10/28 05:28:12;;;;;;;1.67;0.80;;;;;;;;;;5128867;27;40554;-59
2023/10/28 05:30:40;;;;;;;1.55;0.70;;;;;;;;;;5127873;27;41464;-59
2023/10/28 05:33:10;;;;;;;2.90;1.00;;;;;;;;;;5129524;27;41844;-59
2023/10/28 05:35:37;;;;;;;2.13;1.02;;;;;;;;;;5128361;27;40220;-59
2023/10/28 05:38:09;;;;;;;1.08;0.68;;;;;;;;;;5127851;27;41613;-59
2023/10/28 05:40:38;;;;;;;1.30;0.63;;;;;;;;;;5116122;27;42594;-59
2023/10/28 05:43:07;;;;;;;2.03;0.90;;;;;;;;;;5129207;27;42009;-59
2023/10/28 05:45:35;;;;;;;1.60;0.80;;;;;;;;;;5122772;27;42275;-59
2023/10/28 05:48:02;;;;;;;1.27;0.65;;;;;;;;;;5116600;27;40202;-59
2023/10/28 05:50:31;;;;;;;1.23;0.70;;;;;;;;;;5127669;27;41798;-59
2023/10/28 05:52:59;;;;;;;1.88;0.70;;;;;;;;;;5128383;27;41878;-59
2023/10/28 05:55:27;;;;;;;1.00;0.80;;;;;;;;;;5124145;27;40542;-59
2023/10/28 05:57:56;;;;;;;1.00;0.70;;;;;;;;;;5127787;27;41273;-59
2023/10/28 06:00:24;;;;;;;0.82;0.60;;;;;;;;;;5128556;27;42200;-59
2023/10/28 06:02:53;;;;;;;1.42;0.70;;;;;;;;;;5128059;27;41034;-59
2023/10/28 06:05:21;;;;;;;1.42;0.77;;;;;;;;;;5127345;27;42204;-59
2023/10/28 06:07:49;;;;;;;1.27;0.70;;;;;;;;;;5127299;27;40914;-59
2023/10/28 06:10:17;;;;;;;0.90;0.80;;;;;;;;;;5127811;27;42248;-59
2023/10/28 06:12:45;;;;;;;0.98;0.50;;;;;;;;;;5120679;27;41993;-59
2023/10/28 06:15:15;;;;;;;1.10;0.60;;;;;;;;;;5127919;27;40079;-59
2023/10/28 06:17:47;;;;;;;1.05;0.65;;;;;;;;;;5128354;27;42224;-59
2023/10/28 06:20:15;;;;;;;1.02;0.68;;;;;;;;;;5127064;27;43083;-59
2023/10/28 06:22:43;;;;;;;1.33;0.77;;;;;;;;;;5127926;27;40136;-59
2023/10/28 06:25:11;;;;;;;1.35;0.68;;;;;;;;;;5127497;27;41592;-59
2023/10/28 06:27:39;;;;;;;1.38;0.60;;;;;;;;;;5127566;27;42327;-59
2023/10/28 06:30:07;;;;;;;1.23;0.70;;;;;;;;;;5127507;27;41608;-59
2023/10/28 06:32:38;;;;;;;1.13;0.60;;;;;;;;;;5126279;27;41693;-59
2023/10/28 06:35:08;;;;;;;0.98;0.60;;;;;;;;;;5121973;27;40381;-59
2023/10/28 06:37:39;;;;;;;1.25;0.73;;;;;;;;;;5113391;27;41646;-59
2023/10/28 06:40:10;;;;;;;1.00;0.60;;;;;;;;;;5127154;27;43141;-59
2023/10/28 06:42:38;;;;;;;1.92;0.80;;;;;;;;;;5126329;27;41082;-59
2023/10/28 06:45:06;;;;;;;1.38;0.60;;;;;;;;;;5127859;27;42009;-59
2023/10/28 06:47:34;;;;;;;1.77;0.82;;;;;;;;;;5125918;27;41803;-59
2023/10/28 06:50:06;;;;;;;0.98;0.65;;;;;;;;;;5127823;27;40033;-59
2023/10/28 06:52:36;;;;;;;0.73;0.60;;;;;;;;;;5122371;27;42288;-59
2023/10/28 06:55:05;;;;;;;1.05;0.60;;;;;;;;;;5125885;27;41495;-59
2023/10/28 06:57:33;;;;;;;1.17;0.38;;;;;;;;;;5126294;27;41823;-59
2023/10/28 07:00:01;;;;;;;1.25;0.63;;;;;;;;;;5128288;27;42032;-59
2023/10/28 07:02:28;;;;;;;1.02;0.50;;;;;;;;;;5117942;27;41101;-59
2023/10/28 07:04:56;;;;;;;1.52;0.85;;;;;;;;;;5112454;27;41286;-59
2023/10/28 07:07:26;;;;;;;0.73;0.63;;;;;;;;;;5127399;27;41623;-59
2023/10/28 07:09:54;;;;;;;0.93;0.55;;;;;;;;;;5126863;27;41337;-59
2023/10/28 07:12:22;;;;;;;0.85;0.60;;;;;;;;;;5122589;27;41675;-59
2023/10/28 07:14:50;;;;;;;0.85;0.60;;;;;;;;;;5125961;27;40158;-59
2023/10/28 07:17:18;;;;;;;0.95;0.60;;;;;;;;;;5127680;27;41219;-59
2023/10/28 07:19:46;;;;;;;1.60;0.60;;;;;;;;;;5126084;27;41979;-59
2023/10/28 07:22:16;;;;;;;1.08;0.57;;;;;;;;;;5125578;27;41765;-59
2023/10/28 07:24:45;;;;;;;1.05;0.50;;;;;;;;;;5126546;27;41471;-59
2023/10/28 07:27:13;;;;;;;2.35;0.60;;;;;;;;;;5120031;27;42688;-59
2023/10/28 07:29:41;;;;;;;0.50;0.50;;;;;;;;;;5120091;27;39676;-59
2023/10/28 07:32:10;;;;;;;0.70;0.52;;;;;;;;;;5124048;27;41425;-59
2023/10/28 07:34:38;;;;;;;1.15;0.60;;;;;;;;;;5126938;27;43282;-59
2023/10/28 07:37:06;;;;;;;0.80;0.60;;;;;;;;;;5126295;27;42610;-59
2023/10/28 07:39:34;;;;;;;1.10;0.73;;;;;;;;;;5126973;27;41913;-59
2023/10/28 07:42:03;;;;;;;1.10;0.63;;;;;;;;;;5125938;27;41269;-59
2023/10/28 07:44:31;;;;;;;1.02;0.40;;;;;;;;;;5117170;27;42468;-59
2023/10/28 07:47:00;;;;;;;0.77;0.50;;;;;;;;;;5127450;27;42752;-59
2023/10/28 07:49:28;;;;;;;1.00;0.60;;;;;;;;;;5126316;27;41601;-59
2023/10/28 07:51:56;;;;;;;1.00;0.50;;;;;;;;;;5126530;27;41384;-59
2023/10/28 07:54:24;;;;;;;0.65;0.57;;;;;;;;;;5124983;27;42068;-59
2023/10/28 07:56:52;;;;;;;0.90;0.60;;;;;;;;;;5126693;27;41571;-59
2023/10/28 07:59:22;;;;;;;0.68;0.50;;;;;;;;;;5125942;27;42067;-59
2023/10/28 08:01:50;;;;;;;1.52;0.50;;;;;;;;;;5121852;27;41359;-59
2023/10/28 08:04:17;;;;;;;1.55;0.90;;;;;;;;;;5121589;27;41562;-59
2023/10/28 08:06:45;;;;;;;1.10;0.68;;;;;;;;;;5126148;27;41383;-59
2023/10/28 08:09:13;;;;;;;0.93;0.60;;;;;;;;;;5130159;27;39559;-59
2023/10/28 08:11:41;;;;;;;1.38;0.50;;;;;;;;;;5125991;27;42570;-59
2023/10/28 08:14:09;;;;;;;1.80;0.60;;;;;;;;;;5124067;27;43063;-59
2023/10/28 08:16:39;;;;;;;1.05;0.50;;;;;;;;;;5129887;27;40890;-59
2023/10/28 08:19:08;;;;;;;0.93;0.50;;;;;;;;;;5129469;27;43199;-59
2023/10/28 08:21:36;;;;;;;1.42;0.70;;;;;;;;;;5128638;27;39707;-59
2023/10/28 08:24:06;;;;;;;0.77;0.45;;;;;;;;;;5123367;27;41291;-59
2023/10/28 08:26:34;;;;;;;0.63;0.60;;;;;;;;;;5128793;27;41474;-59
2023/10/28 08:29:02;;;;;;;0.70;0.50;;;;;;;;;;5129469;27;40912;-59
2023/10/28 08:31:30;;;;;;;1.15;0.50;;;;;;;;;;5130265;27;41610;-59
2023/10/28 08:34:01;;;;;;;1.02;0.52;;;;;;;;;;5116880;27;43110;-59
2023/10/28 08:36:29;;;;;;;1.40;0.47;;;;;;;;;;5129763;27;40821;-59
2023/10/28 08:39:00;;;;;;;0.40;0.40;;;;;;;;;;5129792;27;42149;-59
2023/10/28 08:41:28;;;;;;;1.15;0.50;;;;;;;;;;5128694;27;40240;-59
2023/10/28 08:43:57;;;;;;;0.85;0.60;;;;;;;;;;5129141;27;42184;-59
2023/10/28 08:46:25;;;;;;;0.98;0.50;;;;;;;;;;5121658;27;42751;-61
2023/10/28 08:48:53;;;;;;;0.95;0.50;;;;;;;;;;5129551;27;41116;-59
2023/10/28 08:51:24;;;;;;;0.80;0.55;;;;;;;;;;5130024;27;41587;-59
2023/10/28 08:53:53;;;;;;;0.80;0.40;;;;;;;;;;5129145;27;43096;-59
2023/10/28 08:56:23;;;;;;;1.17;0.60;;;;;;;;;;5129727;27;40159;-58
2023/10/28 08:58:52;;;;;;;1.10;0.50;;;;;;;;;;5125276;27;40969;-59
2023/10/28 09:01:22;;;;;;;0.85;0.50;;;;;;;;;;5127997;27;42172;-59
2023/10/28 09:03:53;;;;;;;1.25;0.63;;;;;;;;;;5129047;27;41385;-59
2023/10/28 09:06:21;;;;;;;1.45;0.40;;;;;;;;;;5129534;27;42192;-59
2023/10/28 09:08:51;;;;;;;0.50;0.40;;;;;;;;;;5127311;27;40212;-59
2023/10/28 09:11:20;;;;;;;0.82;0.40;;;;;;;;;;5130010;27;41681;-59
2023/10/28 09:13:47;;;;;;;1.35;0.60;;;;;;;;;;5114437;27;43012;-59
2023/10/28 09:16:15;;;;;;;2.47;0.65;;;;;;;;;;5127876;27;40251;-59
2023/10/28 09:18:44;;;;;;;1.00;0.40;;;;;;;;;;5127465;27;42593;-59
2023/10/28 09:21:12;;;;;;;1.45;0.50;;;;;;;;;;5118502;27;43139;-59
2023/10/28 09:23:41;;;;;;;1.10;0.60;;;;;;;;;;5125142;27;40442;-59
2023/10/28 09:26:11;;;;;;;0.60;0.40;;;;;;;;;;5129035;27;42567;-59
2023/10/28 09:28:43;;;;;;;0.60;0.50;;;;;;;;;;5127533;27;39721;-59
2023/10/28 09:31:11;;;;;;;1.35;0.43;;;;;;;;;;5128773;27;42172;-59
2023/10/28 09:33:39;;;;;;;0.50;0.40;;;;;;;;;;5127159;27;43258;-59
2023/10/28 09:36:08;;;;;;;1.65;0.40;;;;;;;;;;5128517;27;41437;-59
2023/10/28 09:38:36;;;;;;;0.47;0.40;;;;;;;;;;5128282;27;41587;-59
2023/10/28 09:41:05;;;;;;;0.90;0.50;;;;;;;;;;5129052;27;42332;-59
2023/10/28 09:43:34;;;;;;;0.50;0.40;;;;;;;;;;5128045;27;40915;-59
2023/10/28 09:46:05;;;;;;;1.30;0.70;;;;;;;;;;5128979;27;42203;-59
2023/10/28 09:48:33;;;;;;;1.33;0.52;;;;;;;;;;5128414;27;39598;-58
2023/10/28 09:51:01;;;;;;;1.40;0.50;;;;;;;;;;5128006;27;41221;-59
2023/10/28 09:53:30;;;;;;;1.35;0.60;;;;;;;;;;5128396;27;42019;-59
2023/10/28 09:55:58;;;;;;;1.98;0.60;;;;;;;;;;5128089;27;40368;-59
2023/10/28 09:58:27;;;;;;;0.32;0.30;;;;;;;;;;5128014;27;41456;-59
2023/10/28 10:00:58;;;;;;;1.00;0.50;;;;;;;;;;5128141;27;41674;-59
2023/10/28 10:03:29;;;;;;;1.13;0.65;;;;;;;;;;5128070;27;40460;-59
2023/10/28 10:05:57;;;;;;;1.77;0.75;;;;;;;;;;5118705;27;42089;-59
2023/10/28 10:08:25;;;;;;;0.55;0.40;;;;;;;;;;5127846;27;39913;-59
2023/10/28 10:10:55;;;;;;;0.77;0.50;;;;;;;;;;5127348;27;42202;-59
2023/10/28 10:13:23;;;;;;;1.05;0.70;;;;;;;;;;5127871;27;42191;-59
2023/10/28 10:15:55;;;;;;;1.13;0.70;;;;;;;;;;5128086;27;41158;-59
2023/10/28 10:18:28;;;;;;;0.98;0.60;;;;;;;;;;5126915;27;42061;-59
2023/10/28 10:21:02;;;;;;;0.75;0.45;;;;;;;;;;5128398;27;42758;-59
2023/10/28 10:23:35;;;;;;;0.55;0.47;;;;;;;;;;5128100;27;40227;-59
2023/10/28 10:26:02;;;;;;;1.02;0.57;;;;;;;;;;5127026;27;42600;-59
2023/10/28 10:28:32;;;;;;;1.25;0.60;;;;;;;;;;5129144;27;20700;-59
2023/10/28 10:31:08;;;;;;;0.63;0.55;;;;;;;;;;5109288;27;41563;-59
2023/10/28 10:33:38;;;;;;;1.17;0.60;;;;;;;;;;5126320;27;42407;-59
2023/10/28 10:36:09;;;;;;;0.90;0.40;;;;;;;;;;5127794;27;41023;-59
2023/10/28 10:38:37;;;;;;;1.35;0.70;;;;;;;;;;5126656;27;41828;-59
2023/10/28 10:41:05;;;;;;;1.40;0.70;;;;;;;;;;5126609;27;41967;-59
2023/10/28 10:43:33;;;;;;;1.80;1.00;;;;;;;;;;5127438;27;40188;-59
2023/10/28 10:46:00;;;;;;;2.33;0.50;;;;;;;;;;5126787;27;40981;-59
2023/10/28 10:48:29;;;;;;;1.45;0.60;;;;;;;;;;5127151;27;42291;-59
2023/10/28 10:50:59;;;;;;;1.13;0.60;;;;;;;;;;5127506;27;39650;-59
2023/10/28 10:53:27;;;;;;;1.60;0.73;;;;;;;;;;5126939;27;41665;-59
2023/10/28 10:55:55;;;;;;;1.15;0.55;;;;;;;;;;5126969;27;40442;-59
2023/10/28 10:58:23;;;;;;;1.02;0.45;;;;;;;;;;5127747;27;41524;-59
2023/10/28 11:00:52;;;;;;;0.98;0.63;;;;;;;;;;5125057;27;41737;-59
2023/10/28 11:03:21;;;;;;;2.13;1.48;;;;;;;;;;5126892;27;41351;-59
2023/10/28 11:05:51;;;;;;;1.58;0.90;;;;;;;;;;5126757;27;41426;-59
2023/10/28 11:08:20;;;;;;;2.53;1.88;;;;;;;;;;5127094;27;43119;-59
2023/10/28 11:10:48;;;;;;;2.15;1.20;;;;;;;;;;5126426;27;41174;-59
2023/10/28 11:13:16;;;;;;;1.08;0.55;;;;;;;;;;5112326;27;41585;-59
2023/10/28 11:15:44;;;;;;;0.82;0.55;;;;;;;;;;5113762;27;40850;-60
2023/10/28 11:18:12;;;;;;;0.80;0.60;;;;;;;;;;5126321;27;41618;-59
2023/10/28 11:20:42;;;;;;;2.08;0.95;;;;;;;;;;5126762;27;43253;-59
2023/10/28 11:23:10;;;;;;;0.90;0.50;;;;;;;;;;5127012;27;41290;-59
2023/10/28 11:25:39;;;;;;;1.55;0.60;;;;;;;;;;5120692;27;41549;-59
2023/10/28 11:28:07;;;;;;;0.60;0.50;;;;;;;;;;5122955;27;41960;-59
2023/10/28 11:30:37;;;;;;;2.13;0.80;;;;;;;;;;5122303;27;41483;-59
2023/10/28 11:33:07;;;;;;;1.02;0.70;;;;;;;;;;5122194;27;41769;-59
2023/10/28 11:35:36;;;;;;;2.17;1.10;;;;;;;;;;5126206;27;43203;-59
2023/10/28 11:38:04;;;;;;;2.00;1.27;;;;;;;;;;5124037;27;42613;-59
2023/10/28 11:40:33;;;;;;;1.67;1.10;;;;;;;;;;5125636;27;43272;-59
2023/10/28 11:43:05;;;;;;;2.30;1.42;;;;;;;;;;5128179;27;40947;-59
2023/10/28 11:45:34;;;;;;;2.90;0.90;;;;;;;;;;5130058;27;42610;-59
2023/10/28 11:48:02;;;;;;;1.75;0.93;;;;;;;;;;5130218;27;42748;-59
2023/10/28 11:50:30;;;;;;;1.40;0.73;;;;;;;;;;5119648;27;41917;-59
2023/10/28 11:52:59;;;;;;;1.35;0.70;;;;;;;;;;5130069;27;41238;-59
2023/10/28 11:55:27;;;;;;;1.60;0.57;;;;;;;;;;5130029;27;42839;-59
2023/10/28 11:57:55;;;;;;;2.15;0.90;;;;;;;;;;5129793;27;41101;-59
2023/10/28 12:00:26;;;;;;;1.00;0.50;;;;;;;;;;5130342;27;41918;-59
2023/10/28 12:02:54;;;;;;;1.52;0.50;;;;;;;;;;5130141;27;41315;-59
2023/10/28 12:05:21;;;;;;;1.52;0.73;;;;;;;;;;5129096;27;41922;-59
2023/10/28 12:07:49;;;;;;;1.58;0.80;;;;;;;;;;5129653;27;42868;-59
2023/10/28 12:10:16;;;;;;;0.85;0.50;;;;;;;;;;5130286;27;40790;-59
2023/10/28 12:12:44;;;;;;;2.03;0.80;;;;;;;;;;5112200;27;42136;-59
2023/10/28 12:15:12;;;;;;;1.60;0.70;;;;;;;;;;5130370;27;42712;-59
2023/10/28 12:17:42;;;;;;;2.30;0.65;;;;;;;;;;5129518;27;41341;-59
2023/10/28 12:20:14;;;;;;;1.70;0.70;;;;;;;;;;5129560;27;41981;-59
2023/10/28 12:22:42;;;;;;;2.03;0.70;;;;;;;;;;5129820;27;41080;-59
2023/10/28 12:25:13;;;;;;;1.98;0.75;;;;;;;;;;5128693;27;41743;-59
2023/10/28 12:27:42;;;;;;;2.13;0.80;;;;;;;;;;5121328;27;42080;-59
2023/10/28 12:30:10;;;;;;;1.20;0.57;;;;;;;;;;5124633;27;40360;-59
2023/10/28 12:32:38;;;;;;;1.67;0.63;;;;;;;;;;5123703;27;42650;-59
2023/10/28 12:35:08;;;;;;;2.65;0.70;;;;;;;;;;5116765;27;41930;-59
2023/10/28 12:37:36;;;;;;;2.13;0.70;;;;;;;;;;5128711;27;40241;-59
2023/10/28 12:40:05;;;;;;;1.42;0.70;;;;;;;;;;5129835;27;41423;-59
2023/10/28 12:42:35;;;;;;;1.17;0.70;;;;;;;;;;5128591;27;41356;-59
2023/10/28 12:45:04;;;;;;;0.75;0.52;;;;;;;;;;5129665;27;42318;-59
2023/10/28 12:47:32;;;;;;;1.35;0.60;;;;;;;;;;5128263;27;42054;-59
2023/10/28 12:50:02;;;;;;;2.30;0.70;;;;;;;;;;5129297;27;40366;-59
2023/10/28 12:52:32;;;;;;;2.72;0.80;;;;;;;;;;5127958;27;42746;-59
2023/10/28 12:55:00;;;;;;;1.10;0.75;;;;;;;;;;5128705;27;43104;-59
2023/10/28 12:57:28;;;;;;;1.13;0.40;;;;;;;;;;5128070;27;40986;-59
2023/10/28 12:59:56;;;;;;;0.70;0.40;;;;;;;;;;5129087;27;42275;-59
2023/10/28 13:02:25;;;;;;;1.38;0.60;;;;;;;;;;5129216;27;41617;-59
2023/10/28 13:04:53;;;;;;;1.75;0.70;;;;;;;;;;5129039;27;41597;-59
2023/10/28 13:07:21;;;;;;;1.75;0.70;;;;;;;;;;5128420;27;42233;-59
2023/10/28 13:09:51;;;;;;;1.38;0.50;;;;;;;;;;5128850;27;41370;-59
2023/10/28 13:12:19;;;;;;;1.63;0.70;;;;;;;;;;5121193;27;41563;-59
2023/10/28 13:14:47;;;;;;;1.85;0.50;;;;;;;;;;5122005;27;42915;-59
2023/10/28 13:17:15;;;;;;;3.42;1.20;;;;;;;;;;5129104;27;39845;-59
2023/10/28 13:19:43;;;;;;;1.15;0.47;;;;;;;;;;5128358;27;42204;-59
2023/10/28 13:22:12;;;;;;;2.72;0.70;;;;;;;;;;5127803;27;41953;-59
2023/10/28 13:24:40;;;;;;;1.45;0.70;;;;;;;;;;5129025;27;40848;-59
2023/10/28 13:27:09;;;;;;;2.78;0.85;;;;;;;;;;5128591;27;42693;-59
2023/10/28 13:29:38;;;;;;;2.03;0.75;;;;;;;;;;5122721;27;40350;-59
2023/10/28 13:32:08;;;;;;;2.58;0.80;;;;;;;;;;5125333;27;41746;-59
2023/10/28 13:34:36;;;;;;;1.50;0.80;;;;;;;;;;5117531;27;41155;-59
2023/10/28 13:37:04;;;;;;;2.10;0.75;;;;;;;;;;5129045;27;40720;-60
2023/10/28 13:39:32;;;;;;;0.98;0.65;;;;;;;;;;5128780;27;41177;-59
2023/10/28 13:42:00;;;;;;;1.90;0.95;;;;;;;;;;5128150;27;41894;-59
2023/10/28 13:44:30;;;;;;;1.52;0.70;;;;;;;;;;5128237;27;41194;-59
2023/10/28 13:46:58;;;;;;;3.70;0.75;;;;;;;;;;5128796;27;42327;-59
2023/10/28 13:49:26;;;;;;;1.85;0.93;;;;;;;;;;5127272;27;39897;-59
2023/10/28 13:51:54;;;;;;;2.65;0.90;;;;;;;;;;5118145;27;42262;-60
2023/10/28 13:54:23;;;;;;;2.40;0.70;;;;;;;;;;5124270;27;42262;-59
2023/10/28 13:56:51;;;;;;;2.83;0.98;;;;;;;;;;5126856;27;40150;-60
2023/10/28 13:59:18;;;;;;;2.30;0.85;;;;;;;;;;5113585;27;41476;-59
2023/10/28 14:01:50;;;;;;;1.40;0.80;;;;;;;;;;5127865;27;43211;-59
2023/10/28 14:04:18;;;;;;;2.15;1.00;;;;;;;;;;5128008;27;40987;-59
2023/10/28 14:06:46;;;;;;;3.05;1.00;;;;;;;;;;5120857;27;41722;-59
2023/10/28 14:09:14;;;;;;;2.00;0.95;;;;;;;;;;5128583;27;31776;-59
2023/10/28 14:11:42;;;;;;;1.25;0.70;;;;;;;;;;5126816;27;42838;-59
2023/10/28 14:14:10;;;;;;;2.10;0.80;;;;;;;;;;5128482;27;42672;-59
2023/10/28 14:16:38;;;;;;;1.73;1.00;;;;;;;;;;5128729;27;40562;-59
2023/10/28 14:19:07;;;;;;;2.25;1.00;;;;;;;;;;5127026;27;41651;-59
2023/10/28 14:21:35;;;;;;;1.45;0.90;;;;;;;;;;5119950;27;42239;-59
2023/10/28 14:24:03;;;;;;;2.83;1.10;;;;;;;;;;5120978;27;41017;-59
2023/10/28 14:26:31;;;;;;;2.53;0.80;;;;;;;;;;5124784;27;41754;-59
2023/10/28 14:28:59;;;;;;;1.58;0.77;;;;;;;;;;5127691;27;42150;-59
2023/10/28 14:31:27;;;;;;;2.05;1.00;;;;;;;;;;5127161;27;41538;-59
2023/10/28 14:33:57;;;;;;;2.25;0.90;;;;;;;;;;5126894;27;42612;-59
2023/10/28 14:36:27;;;;;;;2.72;1.08;;;;;;;;;;5127320;27;40590;-59
2023/10/28 14:38:55;;;;;;;1.92;1.00;;;;;;;;;;5127004;27;42096;-60
2023/10/28 14:41:23;;;;;;;4.50;1.58;;;;;;;;;;5127467;27;42079;-59
2023/10/28 14:43:51;;;;;;;1.75;0.93;;;;;;;;;;5127163;27;40089;-59
2023/10/28 14:46:19;;;;;;;2.17;1.00;;;;;;;;;;5126395;27;42638;-59
2023/10/28 14:48:47;;;;;;;1.60;0.90;;;;;;;;;;5119945;27;41877;-60
2023/10/28 14:51:15;;;;;;;2.95;1.00;;;;;;;;;;5126627;27;40273;-60